»·PEaware :: N737WT KPAE-KOLM

N737WT :: KPAE-KOLM

FLIGHT INFORMATION

Flight Status: Arrived
Operator: Privately registered:
United States
More flights under this callsign
Pilot: Gary H. (18965)
Aircraft: BEECH AIRCRAFT BARON
(BE58)
More flights by this aircraft type
Origin: KPAE Paine Field/Snohomish Co.
United States
Destination: KOLM Olympia
United States
More flights between these airports :: More routes between these airports
Route: ARPEE
File this flight plan on PilotEdge
Remarks:
Altitude:
(Current/Filed)
6,000ft
Speed:
(Current/Filed)
160kts
Departed: 19-May-22 05:41 PM
Arrived: 19-May-22 06:15 PM
Distance/Time
Traveled:
61nm/0:34
Distance/Time
To Go:
Arrived

Flight Plot

Page will automatically refresh every two minutes.

Flight plan parsing failed; only flown route is shown


Map Options




Map Legend


Flown Route
Filed Route
Departure Airport
Arrival Airport
Navaid (VOR, NDB)
Fix

Horizontal Profiles

Position Reports

Time Latitude Longitude Heading Altitude Ground
Speed
19-May-22 17:26 47.906016 -122.282180 324 588ft 0kts
19-May-22 17:27 47.906016 -122.282180 324 588ft 0kts
19-May-22 17:28 47.906016 -122.282180 324 588ft 0kts
19-May-22 17:29 47.906016 -122.282180 324 588ft 0kts
19-May-22 17:30 47.906016 -122.282180 324 588ft 0kts
19-May-22 17:31 47.906016 -122.282180 324 588ft 0kts
19-May-22 17:32 47.906019 -122.282184 322 588ft 0kts
19-May-22 17:33 47.901901 -122.283102 183 583ft 29kts
19-May-22 17:34 47.897945 -122.283380 247 570ft 0kts
19-May-22 17:35 47.897945 -122.283380 246 570ft 0kts
19-May-22 17:36 47.897945 -122.283380 246 570ft 0kts
19-May-22 17:37 47.897945 -122.283380 246 570ft 0kts
19-May-22 17:38 47.897945 -122.283380 246 570ft 0kts
19-May-22 17:39 47.897945 -122.283380 246 570ft 0kts
19-May-22 17:40 47.898516 -122.285347 359 561ft 34kts
19-May-22 17:41 47.926354 -122.283834 1 1210ft 124kts
19-May-22 17:42 47.961079 -122.281104 2 2011ft 130kts
19-May-22 17:43 48.001495 -122.279488 355 2092ft 159kts
19-May-22 17:44 48.047047 -122.276999 2 1996ft 168kts
19-May-22 17:44 48.085816 -122.274984 357 1995ft 166kts
19-May-22 17:46 48.139830 -122.278244 356 1998ft 167kts
19-May-22 17:47 48.168463 -122.316007 264 2536ft 149kts
19-May-22 17:48 48.145470 -122.366711 236 3467ft 146kts
19-May-22 17:48 48.121391 -122.402978 226 4230ft 151kts
19-May-22 17:49 48.089351 -122.445512 226 5145ft 157kts
19-May-22 17:51 48.050785 -122.496129 226 6014ft 169kts
19-May-22 17:52 48.014125 -122.544782 226 6012ft 180kts
19-May-22 17:52 47.982793 -122.586522 226 6016ft 182kts
19-May-22 17:53 47.944902 -122.637042 226 6016ft 186kts
19-May-22 17:54 47.905401 -122.689019 225 6010ft 191kts
19-May-22 17:56 47.858723 -122.750258 225 5998ft 191kts
19-May-22 17:56 47.821052 -122.783122 191 5997ft 196kts
19-May-22 17:57 47.766925 -122.791954 189 5997ft 195kts
19-May-22 17:58 47.713339 -122.799603 189 5998ft 193kts
19-May-22 17:59 47.660243 -122.807064 189 5999ft 191kts
19-May-22 18:00 47.607325 -122.814471 189 5999ft 191kts
19-May-22 18:01 47.554545 -122.821842 189 5999ft 191kts
19-May-22 18:02 47.501758 -122.829200 189 5999ft 191kts
19-May-22 18:03 47.448814 -122.836562 189 5999ft 191kts
19-May-22 18:04 47.395448 -122.834373 186 6000ft 192kts
19-May-22 18:05 47.341881 -122.833731 174 5999ft 196kts
19-May-22 18:06 47.285483 -122.821870 174 5283ft 210kts
19-May-22 18:07 47.229895 -122.831639 193 4236ft 199kts
19-May-22 18:08 47.176804 -122.845762 210 3259ft 189kts
19-May-22 18:09 47.125981 -122.858653 187 2389ft 180kts
19-May-22 18:10 47.081234 -122.872331 195 2380ft 134kts
19-May-22 18:11 47.047304 -122.884589 195 1620ft 121kts
19-May-22 18:12 47.015085 -122.890637 188 993ft 110kts
19-May-22 18:13 46.987735 -122.899617 187 496ft 97kts
19-May-22 18:14 46.967483 -122.904940 173 201ft 22kts
19-May-22 18:15 46.967279 -122.901160 60 202ft 15kts
19-May-22 18:16 46.972175 -122.896950 49 201ft 25kts
19-May-22 18:17 46.973461 -122.896422 318 201ft 0kts
19-May-22 18:18 46.973461 -122.896422 318 201ft 0kts
19-May-22 18:19 46.973461 -122.896422 318 201ft 0kts
19-May-22 18:20 46.973461 -122.896422 318 201ft 0kts
19-May-22 18:21 46.973461 -122.896422 318 201ft 0kts

Navigation Log

Ident Type
Flight plan parsing failed, navigation log unavailable